Time,TemperatureF,DewpointF,PressureIn,WindDirection,WindDirectionDegrees,WindSpeedMPH,WindSpeedGustMPH,Humidity,HourlyPrecipIn,Conditions,Clouds,dailyrainin,SolarRadiationWatts/m^2,SoftwareType,DateUTC
2013-10-04 00:00:00,67.5,32.3,30.02,WNW,294,10.0,10.0,27,0.00,,,0.00,0,Wunderground v.1.15,2013-10-04 07:00:00,
2013-10-04 00:10:00,67.3,32.1,30.02,NNW,333,9.0,10.0,27,0.00,,,0.00,0,Wunderground v.1.15,2013-10-04 07:10:00,
2013-10-04 00:20:00,67.1,32.9,30.02,NW,323,8.0,8.0,28,0.00,,,0.00,0,Wunderground v.1.15,2013-10-04 07:20:00,
2013-10-04 00:30:00,66.8,32.6,30.02,NNW,340,7.0,17.0,28,0.00,,,0.00,0,Wunderground v.1.15,2013-10-04 07:30:00,
2013-10-04 00:40:00,66.7,32.5,30.02,NNW,338,11.0,11.0,28,0.00,,,0.00,0,Wunderground v.1.15,2013-10-04 07:40:00,
2013-10-04 00:50:00,66.7,32.5,30.02,NNW,348,9.0,9.0,28,0.00,,,0.00,0,Wunderground v.1.15,2013-10-04 07:50:00,
2013-10-04 01:00:00,66.7,31.6,30.02,North,360,11.0,16.0,27,0.00,,,0.00,0,Wunderground v.1.15,2013-10-04 08:00:00,
2013-10-04 01:10:00,66.7,31.6,30.02,North,5,10.0,14.0,27,0.00,,,0.00,0,Wunderground v.1.15,2013-10-04 08:10:00,
2013-10-04 01:20:00,66.6,31.5,30.01,North,350,12.0,18.0,27,0.00,,,0.00,0,Wunderground v.1.15,2013-10-04 08:20:00,
2013-10-04 01:30:00,66.7,31.6,30.01,North,11,15.0,15.0,27,0.00,,,0.00,0,Wunderground v.1.15,2013-10-04 08:30:00,
2013-10-04 01:40:00,66.6,31.5,30.01,NE,39,13.0,13.0,27,0.00,,,0.00,0,Wunderground v.1.15,2013-10-04 08:40:00,
2013-10-04 01:50:00,66.3,32.2,30.02,NE,40,11.0,11.0,28,0.00,,,0.00,0,Wunderground v.1.15,2013-10-04 08:50:00,
2013-10-04 02:00:00,66.2,32.1,30.02,NNW,345,12.0,20.0,28,0.00,,,0.00,0,Wunderground v.1.15,2013-10-04 09:00:00,
2013-10-04 02:10:00,66.2,32.1,30.02,North,360,12.0,12.0,28,0.00,,,0.00,0,Wunderground v.1.15,2013-10-04 09:10:00,
2013-10-04 02:20:00,66.1,32.0,30.03,NW,307,12.0,17.0,28,0.00,,,0.00,0,Wunderground v.1.15,2013-10-04 09:20:00,
2013-10-04 02:30:00,65.9,31.8,30.02,West,278,9.0,9.0,28,0.00,,,0.00,0,Wunderground v.1.15,2013-10-04 09:30:00,
2013-10-04 02:40:00,65.8,31.8,30.03,NNE,15,11.0,11.0,28,0.00,,,0.00,0,Wunderground v.1.15,2013-10-04 09:40:00,
2013-10-04 02:50:00,65.8,31.8,30.02,NNE,12,11.0,11.0,28,0.00,,,0.00,0,Wunderground v.1.15,2013-10-04 09:50:00,
2013-10-04 03:00:00,65.7,31.7,30.02,NE,51,13.0,13.0,28,0.00,,,0.00,0,Wunderground v.1.15,2013-10-04 10:00:00,
2013-10-04 03:10:00,65.6,31.6,30.02,North,5,13.0,22.0,28,0.00,,,0.00,0,Wunderground v.1.15,2013-10-04 10:10:00,
2013-10-04 03:20:00,65.5,30.6,30.02,NNE,17,11.0,11.0,27,0.00,,,0.00,0,Wunderground v.1.15,2013-10-04 10:20:00,
2013-10-04 03:30:00,65.4,30.5,30.01,NNW,338,14.0,14.0,27,0.00,,,0.00,0,Wunderground v.1.15,2013-10-04 10:30:00,
2013-10-04 03:40:00,65.4,30.5,30.01,NNE,28,15.0,15.0,27,0.00,,,0.00,0,Wunderground v.1.15,2013-10-04 10:40:00,
2013-10-04 03:50:00,65.3,30.4,30.01,North,11,15.0,23.0,27,0.00,,,0.00,0,Wunderground v.1.15,2013-10-04 10:50:00,
2013-10-04 04:00:00,65.2,30.3,30.01,NE,53,15.0,15.0,27,0.00,,,0.00,0,Wunderground v.1.15,2013-10-04 11:00:00,
2013-10-04 04:10:00,64.9,30.1,30.02,North,5,10.0,11.0,27,0.00,,,0.00,0,Wunderground v.1.15,2013-10-04 11:10:00,
2013-10-04 04:20:00,64.8,30.9,30.02,NNW,331,14.0,14.0,28,0.00,,,0.00,0,Wunderground v.1.15,2013-10-04 11:20:00,
2013-10-04 04:30:00,64.7,30.8,30.02,North,5,12.0,20.0,28,0.00,,,0.00,0,Wunderground v.1.15,2013-10-04 11:30:00,
2013-10-04 04:40:00,64.5,30.6,30.02,North,9,11.0,16.0,28,0.00,,,0.00,0,Wunderground v.1.15,2013-10-04 11:40:00,
2013-10-04 04:50:00,64.4,30.6,30.02,NE,48,10.0,10.0,28,0.00,,,0.00,0,Wunderground v.1.15,2013-10-04 11:50:00,
2013-10-04 05:00:00,64.0,30.2,30.02,East,94,8.0,8.0,28,0.00,,,0.00,0,Wunderground v.1.15,2013-10-04 12:00:00,
2013-10-04 05:10:00,63.9,31.0,30.03,West,278,9.0,9.0,29,0.00,,,0.00,0,Wunderground v.1.15,2013-10-04 12:10:00,
2013-10-04 05:20:00,63.7,30.8,30.03,NNE,22,7.0,7.0,29,0.00,,,0.00,0,Wunderground v.1.15,2013-10-04 12:20:00,
2013-10-04 05:30:00,63.4,30.6,30.04,NNE,31,5.0,10.0,29,0.00,,,0.00,0,Wunderground v.1.15,2013-10-04 12:30:00,
2013-10-04 05:40:00,63.1,31.1,30.04,East,94,5.0,5.0,30,0.00,,,0.00,0,Wunderground v.1.15,2013-10-04 12:40:00,
2013-10-04 05:50:00,63.1,31.1,30.04,NE,42,8.0,8.0,30,0.00,,,0.00,0,Wunderground v.1.15,2013-10-04 12:50:00,
2013-10-04 06:00:00,62.8,30.9,30.05,North,9,4.0,14.0,30,0.00,,,0.00,0,Wunderground v.1.15,2013-10-04 13:00:00,
2013-10-04 06:10:00,62.8,30.9,30.05,NE,44,5.0,5.0,30,0.00,,,0.00,0,Wunderground v.1.15,2013-10-04 13:10:00,
2013-10-04 06:20:00,62.6,31.5,30.05,ESE,106,4.0,4.0,31,0.00,,,0.00,0,Wunderground v.1.15,2013-10-04 13:20:00,
2013-10-04 06:30:00,62.5,31.4,30.06,NNE,17,5.0,7.0,31,0.00,,,0.00,0,Wunderground v.1.15,2013-10-04 13:30:00,
2013-10-04 06:40:00,62.3,31.3,30.06,ENE,72,3.0,3.0,31,0.00,,,0.00,0,Wunderground v.1.15,2013-10-04 13:40:00,
2013-10-04 06:50:00,62.1,31.1,30.06,NE,55,2.0,4.0,31,0.00,,,0.00,0,Wunderground v.1.15,2013-10-04 13:50:00,
2013-10-04 07:00:00,62.2,31.2,30.06,NE,34,2.0,2.0,31,0.00,,,0.00,0,Wunderground v.1.15,2013-10-04 14:00:00,
2013-10-04 07:10:00,62.0,31.0,30.07,NNE,30,3.0,3.0,31,0.00,,,0.00,0,Wunderground v.1.15,2013-10-04 14:10:00,
2013-10-04 07:20:00,62.1,31.1,30.07,ENE,71,5.0,5.0,31,0.00,,,0.00,7,Wunderground v.1.15,2013-10-04 14:20:00,
2013-10-04 07:30:00,62.5,31.4,30.07,NE,40,7.0,7.0,31,0.00,,,0.00,25,Wunderground v.1.15,2013-10-04 14:30:00,
2013-10-04 07:40:00,62.9,31.8,30.07,ENE,75,5.0,9.0,31,0.00,,,0.00,46,Wunderground v.1.15,2013-10-04 14:40:00,
2013-10-04 07:50:00,63.3,31.3,30.07,ENE,68,7.0,7.0,30,0.00,,,0.00,74,Wunderground v.1.15,2013-10-04 14:50:00,
2013-10-04 08:00:00,63.8,31.7,30.07,ENE,66,4.0,4.0,30,0.00,,,0.00,84,Wunderground v.1.15,2013-10-04 15:00:00,
2013-10-04 08:10:00,64.2,32.1,30.08,ENE,58,6.0,6.0,30,0.00,,,0.00,149,Wunderground v.1.15,2013-10-04 15:10:00,
2013-10-04 08:20:00,64.9,31.9,30.08,NNE,25,4.0,10.0,29,0.00,,,0.00,190,Wunderground v.1.15,2013-10-04 15:20:00,
2013-10-04 08:30:00,65.3,32.2,30.09,NNE,30,4.0,5.0,29,0.00,,,0.00,234,Wunderground v.1.15,2013-10-04 15:30:00,
2013-10-04 08:40:00,66.3,33.1,30.09,North,355,6.0,6.0,29,0.00,,,0.00,276,Wunderground v.1.15,2013-10-04 15:40:00,
2013-10-04 08:50:00,66.7,33.4,30.09,NNW,338,6.0,6.0,29,0.00,,,0.00,308,Wunderground v.1.15,2013-10-04 15:50:00,
2013-10-04 09:00:00,67.4,32.2,30.10,WNW,296,8.0,8.0,27,0.00,,,0.00,339,Wunderground v.1.15,2013-10-04 16:00:00,
2013-10-04 09:10:00,68.1,34.6,30.10,NE,34,6.0,6.0,29,0.00,,,0.00,371,Wunderground v.1.15,2013-10-04 16:10:00,
2013-10-04 09:20:00,67.9,32.7,30.11,East,83,9.0,12.0,27,0.00,,,0.00,399,Wunderground v.1.15,2013-10-04 16:20:00,
2013-10-04 09:30:00,67.6,33.3,30.11,NE,36,13.0,13.0,28,0.00,,,0.00,302,Wunderground v.1.15,2013-10-04 16:30:00,
2013-10-04 09:40:00,67.8,32.6,30.11,ESE,119,14.0,14.0,27,0.00,,,0.00,325,Wunderground v.1.15,2013-10-04 16:40:00,
2013-10-04 09:50:00,68.2,32.9,30.11,North,5,13.0,13.0,27,0.00,,,0.00,339,Wunderground v.1.15,2013-10-04 16:50:00,
2013-10-04 10:00:00,68.6,33.3,30.12,NNW,347,13.0,13.0,27,0.00,,,0.00,508,Wunderground v.1.15,2013-10-04 17:00:00,
2013-10-04 10:10:00,68.8,34.3,30.12,NE,46,11.0,11.0,28,0.00,,,0.00,536,Wunderground v.1.15,2013-10-04 17:10:00,
2013-10-04 10:20:00,69.0,33.6,30.12,NE,37,12.0,15.0,27,0.00,,,0.00,561,Wunderground v.1.15,2013-10-04 17:20:00,
2013-10-04 10:30:00,69.1,33.7,30.13,NNW,347,13.0,18.0,27,0.00,,,0.00,584,Wunderground v.1.15,2013-10-04 17:30:00,
2013-10-04 11:00:00,70.3,33.8,30.13,NE,45,14.0,14.0,26,0.00,,,0.00,640,Wunderground v.1.15,2013-10-04 18:00:00,
2013-10-04 11:10:00,70.7,34.1,30.13,North,9,11.0,11.0,26,0.00,,,0.00,668,Wunderground v.1.15,2013-10-04 18:10:00,
2013-10-04 11:20:00,71.0,33.4,30.13,NNE,24,11.0,11.0,25,0.00,,,0.00,682,Wunderground v.1.15,2013-10-04 18:20:00,
2013-10-04 11:30:00,71.4,33.7,30.13,NNE,19,12.0,12.0,25,0.00,,,0.00,696,Wunderground v.1.15,2013-10-04 18:30:00,
2013-10-04 11:40:00,72.3,35.5,30.13,North,355,7.0,14.0,26,0.00,,,0.00,712,Wunderground v.1.15,2013-10-04 18:40:00,
2013-10-04 11:50:00,72.7,33.8,30.13,NNW,338,10.0,10.0,24,0.00,,,0.00,726,Wunderground v.1.15,2013-10-04 18:50:00,
2013-10-04 12:00:00,73.0,34.1,30.13,North,355,7.0,7.0,24,0.00,,,0.00,740,Wunderground v.1.15,2013-10-04 19:00:00,
2013-10-04 12:10:00,72.9,35.0,30.13,NNE,28,9.0,9.0,25,0.00,,,0.00,749,Wunderground v.1.15,2013-10-04 19:10:00,
2013-10-04 12:20:00,72.8,32.8,30.13,NE,38,10.0,10.0,23,0.00,,,0.00,759,Wunderground v.1.15,2013-10-04 19:20:00,
2013-10-04 12:30:00,73.7,33.6,30.12,NE,49,10.0,10.0,23,0.00,,,0.00,763,Wunderground v.1.15,2013-10-04 19:30:00,
2013-10-04 12:40:00,73.9,32.6,30.13,NNE,26,11.0,11.0,22,0.00,,,0.00,766,Wunderground v.1.15,2013-10-04 19:40:00,
2013-10-04 12:50:00,74.2,34.0,30.13,North,9,10.0,19.0,23,0.00,,,0.00,766,Wunderground v.1.15,2013-10-04 19:50:00,
2013-10-04 13:00:00,74.3,34.1,30.12,NW,318,9.0,9.0,23,0.00,,,0.00,768,Wunderground v.1.15,2013-10-04 20:00:00,
2013-10-04 13:10:00,74.4,33.1,30.12,NNE,30,12.0,12.0,22,0.00,,,0.00,768,Wunderground v.1.15,2013-10-04 20:10:00,
2013-10-04 13:20:00,75.1,34.8,30.11,East,86,7.0,7.0,23,0.00,,,0.00,766,Wunderground v.1.15,2013-10-04 20:20:00,
2013-10-04 13:30:00,75.4,33.9,30.11,NNE,21,7.0,22.0,22,0.00,,,0.00,759,Wunderground v.1.15,2013-10-04 20:30:00,
2013-10-04 13:40:00,75.4,33.9,30.10,NNE,20,10.0,15.0,22,0.00,,,0.00,756,Wunderground v.1.15,2013-10-04 20:40:00,
2013-10-04 13:50:00,75.5,32.8,30.10,NE,44,9.0,9.0,21,0.00,,,0.00,747,Wunderground v.1.15,2013-10-04 20:50:00,
2013-10-04 14:00:00,75.6,32.9,30.09,NNE,22,11.0,13.0,21,0.00,,,0.00,735,Wunderground v.1.15,2013-10-04 21:00:00,
2013-10-04 14:10:00,76.0,33.2,30.09,North,355,8.0,8.0,21,0.00,,,0.00,722,Wunderground v.1.15,2013-10-04 21:10:00,
2013-10-04 14:20:00,76.7,35.0,30.09,NNE,15,9.0,14.0,22,0.00,,,0.00,708,Wunderground v.1.15,2013-10-04 21:20:00,
2013-10-04 14:30:00,76.6,33.7,30.09,North,11,10.0,10.0,21,0.00,,,0.00,675,Wunderground v.1.15,2013-10-04 21:30:00,
2013-10-04 14:40:00,76.1,32.1,30.08,ENE,65,8.0,8.0,20,0.00,,,0.00,445,Wunderground v.1.15,2013-10-04 21:40:00,
2013-10-04 14:50:00,76.5,32.4,30.08,NNE,28,13.0,13.0,20,0.00,,,0.00,53,Wunderground v.1.15,2013-10-04 21:50:00,
2013-10-04 15:00:00,76.2,32.2,30.08,NNW,347,11.0,16.0,20,0.00,,,0.00,49,Wunderground v.1.15,2013-10-04 22:00:00,
2013-10-04 15:10:00,76.4,32.3,30.08,NNW,341,11.0,13.0,20,0.00,,,0.00,44,Wunderground v.1.15,2013-10-04 22:10:00,
2013-10-04 15:20:00,76.6,33.7,30.08,North,360,9.0,9.0,21,0.00,,,0.00,42,Wunderground v.1.15,2013-10-04 22:20:00,
2013-10-04 15:30:00,76.7,32.6,30.08,NE,54,11.0,14.0,20,0.00,,,0.00,40,Wunderground v.1.15,2013-10-04 22:30:00,
2013-10-04 15:40:00,76.7,33.8,30.08,NNE,28,11.0,12.0,21,0.00,,,0.00,69,Wunderground v.1.15,2013-10-04 22:40:00,
2013-10-04 15:50:00,76.7,33.8,30.07,NNE,26,9.0,9.0,21,0.00,,,0.00,63,Wunderground v.1.15,2013-10-04 22:50:00,
2013-10-04 16:00:00,76.9,32.8,30.07,NE,44,9.0,18.0,20,0.00,,,0.00,35,Wunderground v.1.15,2013-10-04 23:00:00,
2013-10-04 16:10:00,77.1,32.9,30.07,NE,44,8.0,8.0,20,0.00,,,0.00,33,Wunderground v.1.15,2013-10-04 23:10:00,
2013-10-04 16:20:00,77.0,31.6,30.07,NE,52,8.0,8.0,19,0.00,,,0.00,33,Wunderground v.1.15,2013-10-04 23:20:00,
2013-10-04 16:30:00,77.1,31.6,30.07,NNW,348,5.0,10.0,19,0.00,,,0.00,32,Wunderground v.1.15,2013-10-04 23:30:00,
2013-10-04 16:40:00,77.2,31.7,30.07,NW,322,8.0,8.0,19,0.00,,,0.00,30,Wunderground v.1.15,2013-10-04 23:40:00,
2013-10-04 16:50:00,77.3,31.8,30.07,NNE,15,9.0,11.0,19,0.00,,,0.00,28,Wunderground v.1.15,2013-10-04 23:50:00,
2013-10-04 17:00:00,77.4,31.9,30.07,NNE,12,5.0,5.0,19,0.00,,,0.00,26,Wunderground v.1.15,2013-10-05 00:00:00,
2013-10-04 17:10:00,77.4,33.2,30.07,NE,34,8.0,8.0,20,0.00,,,0.00,25,Wunderground v.1.15,2013-10-05 00:10:00,
2013-10-04 17:20:00,77.4,33.2,30.07,NE,51,9.0,10.0,20,0.00,,,0.00,25,Wunderground v.1.15,2013-10-05 00:20:00,
2013-10-04 17:30:00,77.2,34.2,30.07,NW,323,6.0,6.0,21,0.00,,,0.00,23,Wunderground v.1.15,2013-10-05 00:30:00,
2013-10-04 17:40:00,77.1,32.9,30.07,NNE,17,7.0,11.0,20,0.00,,,0.00,21,Wunderground v.1.15,2013-10-05 00:40:00,
2013-10-04 17:50:00,77.0,32.8,30.07,East,89,4.0,4.0,20,0.00,,,0.00,19,Wunderground v.1.15,2013-10-05 00:50:00,
2013-10-04 18:00:00,77.0,32.8,30.07,NNE,32,6.0,7.0,20,0.00,,,0.00,18,Wunderground v.1.15,2013-10-05 01:00:00,
2013-10-04 18:10:00,77.0,32.8,30.07,ENE,58,9.0,9.0,20,0.00,,,0.00,16,Wunderground v.1.15,2013-10-05 01:10:00,
2013-10-04 18:20:00,76.7,32.6,30.07,NE,42,5.0,9.0,20,0.00,,,0.00,12,Wunderground v.1.15,2013-10-05 01:20:00,
2013-10-04 18:30:00,76.5,32.4,30.07,NE,35,8.0,8.0,20,0.00,,,0.00,9,Wunderground v.1.15,2013-10-05 01:30:00,
2013-10-04 18:40:00,76.3,32.3,30.08,NE,41,4.0,4.0,20,0.00,,,0.00,5,Wunderground v.1.15,2013-10-05 01:40:00,
2013-10-04 18:50:00,75.7,33.0,30.07,East,82,4.0,4.0,21,0.00,,,0.00,0,Wunderground v.1.15,2013-10-05 01:50:00,
2013-10-04 19:00:00,75.5,32.8,30.07,ENE,68,5.0,5.0,21,0.00,,,0.00,0,Wunderground v.1.15,2013-10-05 02:00:00,
2013-10-04 19:10:00,75.3,32.6,30.07,ESE,117,6.0,6.0,21,0.00,,,0.00,0,Wunderground v.1.15,2013-10-05 02:10:00,
2013-10-04 19:20:00,75.1,32.5,30.07,NNE,24,5.0,10.0,21,0.00,,,0.00,0,Wunderground v.1.15,2013-10-05 02:20:00,
2013-10-04 19:30:00,74.8,32.2,30.08,NNE,31,5.0,7.0,21,0.00,,,0.00,0,Wunderground v.1.15,2013-10-05 02:30:00,
2013-10-04 19:40:00,74.6,32.1,30.08,NNE,31,5.0,5.0,21,0.00,,,0.00,0,Wunderground v.1.15,2013-10-05 02:40:00,
2013-10-04 19:50:00,74.4,31.9,30.08,East,101,3.0,3.0,21,0.00,,,0.00,0,Wunderground v.1.15,2013-10-05 02:50:00,
2013-10-04 20:00:00,74.2,31.7,30.08,ESE,116,3.0,3.0,21,0.00,,,0.00,0,Wunderground v.1.15,2013-10-05 03:00:00,
2013-10-04 20:10:00,73.6,31.2,30.08,SE,140,3.0,3.0,21,0.00,,,0.00,0,Wunderground v.1.15,2013-10-05 03:10:00,
2013-10-04 20:20:00,73.2,30.9,30.09,East,91,2.0,2.0,21,0.00,,,0.00,0,Wunderground v.1.15,2013-10-05 03:20:00,
2013-10-04 20:30:00,73.0,31.9,30.09,WSW,255,0.0,0.0,22,0.00,,,0.00,0,Wunderground v.1.15,2013-10-05 03:30:00,
2013-10-04 20:40:00,72.4,31.4,30.09,West,270,0.0,0.0,22,0.00,,,0.00,0,Wunderground v.1.15,2013-10-05 03:40:00,
2013-10-04 20:50:00,72.0,31.0,30.09,SW,228,0.0,0.0,22,0.00,,,0.00,0,Wunderground v.1.15,2013-10-05 03:50:00,
2013-10-04 21:00:00,71.4,30.5,30.09,SW,229,0.0,0.0,22,0.00,,,0.00,0,Wunderground v.1.15,2013-10-05 04:00:00,
2013-10-04 21:10:00,70.6,34.0,30.09,WSW,257,0.0,2.0,26,0.00,,,0.00,0,Wunderground v.1.15,2013-10-05 04:10:00,
2013-10-04 21:20:00,68.9,31.6,30.10,WSW,247,1.0,1.0,25,0.00,,,0.00,0,Wunderground v.1.15,2013-10-05 04:20:00,
2013-10-04 21:30:00,68.0,30.8,30.10,SW,229,0.0,0.0,25,0.00,,,0.00,0,Wunderground v.1.15,2013-10-05 04:30:00,
2013-10-04 21:40:00,67.8,31.6,30.10,SW,229,0.0,0.0,26,0.00,,,0.00,0,Wunderground v.1.15,2013-10-05 04:40:00,
2013-10-04 21:50:00,67.3,32.1,30.10,SW,230,0.0,0.0,27,0.00,,,0.00,0,Wunderground v.1.15,2013-10-05 04:50:00,
2013-10-04 22:00:00,66.5,30.5,30.11,SW,230,0.0,0.0,26,0.00,,,0.00,0,Wunderground v.1.15,2013-10-05 05:00:00,
2013-10-04 22:10:00,66.0,31.9,30.11,SW,230,0.0,0.0,28,0.00,,,0.00,0,Wunderground v.1.15,2013-10-05 05:10:00,
2013-10-04 22:20:00,65.5,32.4,30.11,SW,230,0.0,0.0,29,0.00,,,0.00,0,Wunderground v.1.15,2013-10-05 05:20:00,
2013-10-04 22:30:00,64.2,34.5,30.11,SSE,167,1.0,1.0,33,0.00,,,0.00,0,Wunderground v.1.15,2013-10-05 05:30:00,
2013-10-04 22:40:00,63.3,32.9,30.12,SSE,167,0.0,0.0,32,0.00,,,0.00,0,Wunderground v.1.15,2013-10-05 05:40:00,
2013-10-04 22:50:00,62.7,32.4,30.12,SSE,156,1.0,1.0,32,0.00,,,0.00,0,Wunderground v.1.15,2013-10-05 05:50:00,
2013-10-04 23:00:00,62.4,32.1,30.12,SSE,156,1.0,1.0,32,0.00,,,0.00,0,Wunderground v.1.15,2013-10-05 06:00:00,
2013-10-04 23:10:00,62.3,31.3,30.13,SSE,156,0.0,0.0,31,0.00,,,0.00,0,Wunderground v.1.15,2013-10-05 06:10:00,
2013-10-04 23:20:00,62.1,31.1,30.13,SSE,156,0.0,0.0,31,0.00,,,0.00,0,Wunderground v.1.15,2013-10-05 06:20:00,
2013-10-04 23:30:00,61.7,32.3,30.13,SSE,156,0.0,0.0,33,0.00,,,0.00,0,Wunderground v.1.15,2013-10-05 06:30:00,
2013-10-04 23:40:00,61.3,31.9,30.13,SSE,156,0.0,0.0,33,0.00,,,0.00,0,Wunderground v.1.15,2013-10-05 06:40:00,
2013-10-04 23:50:00,60.7,32.1,30.13,SSE,156,0.0,0.0,34,0.00,,,0.00,0,Wunderground v.1.15,2013-10-05 06:50:00,